Time;durP1;ratioP1;P1;durP2;ratioP2;P2;SDS_P1;SDS_P2;PMS_P1;PMS_P2;Temp;Humidity;BMP_temperature;BMP_pressure;BME280_temperature;BME280_humidity;BME280_pressure;Samples;Min_cycle;Max_cycle;Signal;HPM_P1;HPM_P2
2023/08/28 00:01:44;;;;;;;;;1.75;1.00;;;;;-146.67;100.00;57155.34;5040924;28;10123;-75
2023/08/28 00:04:10;;;;;;;;;1.50;1.50;;;;;-146.67;100.00;57155.34;5061157;28;8822;-75
2023/08/28 00:06:35;;;;;;;;;1.00;1.00;;;;;-146.67;100.00;57155.34;5060861;28;8927;-75
2023/08/28 00:09:00;;;;;;;;;1.75;1.75;;;;;-146.67;100.00;57155.34;5043616;28;8783;-75
2023/08/28 00:11:26;;;;;;;;;1.00;1.00;;;;;-146.67;100.00;57155.34;5060415;28;10089;-75
2023/08/28 00:13:52;;;;;;;;;1.75;1.75;;;;;-146.67;100.00;57155.34;5060121;28;8842;-75
2023/08/28 00:16:17;;;;;;;;;2.25;1.25;;;;;-146.67;100.00;57155.34;5043926;28;8795;-75
2023/08/28 00:18:43;;;;;;;;;2.25;1.00;;;;;-146.67;100.00;57155.34;5077122;28;8805;-76
2023/08/28 00:21:08;;;;;;;;;1.00;0.00;;;;;-146.67;100.00;57155.34;5061576;28;8896;-75
2023/08/28 00:23:33;;;;;;;;;1.00;1.00;;;;;-146.67;100.00;57155.34;5061592;28;8821;-75
2023/08/28 00:25:59;;;;;;;;;1.00;1.00;;;;;-146.67;100.00;57155.34;5046953;28;8791;-75
2023/08/28 00:28:25;;;;;;;;;1.75;1.00;;;;;-146.67;100.00;57155.34;5047244;28;8779;-75
2023/08/28 00:30:50;;;;;;;;;1.00;1.00;;;;;-146.67;100.00;57155.34;5065039;28;10855;-75
2023/08/28 00:33:16;;;;;;;;;0.00;0.00;;;;;-146.67;100.00;57155.34;5065352;28;8811;-75
2023/08/28 00:35:42;;;;;;;;;1.50;0.00;;;;;-146.67;100.00;57155.34;5065201;28;8815;-75
2023/08/28 00:38:09;;;;;;;;;0.50;0.00;;;;;-146.67;100.00;57155.34;5065150;28;9180;-75
2023/08/28 00:40:40;;;;;;;;;2.00;1.00;;;;;-146.67;100.00;57155.34;5064882;28;10381;-75
2023/08/28 00:43:06;;;;;;;;;1.00;1.00;;;;;-146.67;100.00;57155.34;5046859;28;10278;-75
2023/08/28 00:45:32;;;;;;;;;1.00;0.00;;;;;-146.67;100.00;57155.34;5065219;28;10436;-75
2023/08/28 00:47:58;;;;;;;;;1.50;1.00;;;;;-146.67;100.00;57155.34;5065015;28;10451;-75
2023/08/28 00:50:24;;;;;;;;;0.75;0.75;;;;;-146.67;100.00;57155.34;5079960;28;10658;-75
2023/08/28 00:52:49;;;;;;;;;0.00;0.00;;;;;-146.67;100.00;57155.34;5046354;28;8848;-75
2023/08/28 00:55:15;;;;;;;;;2.00;2.00;;;;;-146.67;100.00;57155.34;5076028;28;10568;-76
2023/08/28 00:57:40;;;;;;;;;1.75;1.00;;;;;-146.67;100.00;57155.34;5066894;28;8867;-75
2023/08/28 01:00:10;;;;;;;;;4.00;1.00;;;;;-146.67;100.00;57155.34;5084827;28;8833;-76
2023/08/28 01:02:36;;;;;;;;;2.00;1.00;;;;;-146.67;100.00;57155.34;5085048;28;10538;-75
2023/08/28 01:05:02;;;;;;;;;3.25;0.25;;;;;-146.67;100.00;57155.34;5084542;28;10249;-75
2023/08/28 01:07:51;;;;;;;;;2.25;1.00;;;;;-146.67;100.00;57155.34;5084498;28;8769;-76
2023/08/28 01:10:26;;;;;;;;;4.00;0.75;;;;;-146.67;100.00;57155.34;5084308;28;10753;-75
2023/08/28 01:12:57;;;;;;;;;0.50;0.50;;;;;-146.67;100.00;57155.34;5083459;28;10409;-75
2023/08/28 01:15:24;;;;;;;;;1.50;1.50;;;;;-146.67;100.00;57155.34;5084808;28;10530;-75
2023/08/28 01:18:00;;;;;;;;;1.75;0.75;;;;;-146.67;100.00;57155.34;5084535;28;10814;-76
2023/08/28 01:20:27;;;;;;;;;1.50;1.00;;;;;-146.67;100.00;57155.34;5083806;28;10477;-76
2023/08/28 01:23:14;;;;;;;;;1.00;1.00;;;;;-146.67;100.00;57155.34;5084688;28;10472;-76
2023/08/28 01:25:40;;;;;;;;;1.50;1.50;;;;;-146.67;100.00;57155.34;5084164;28;10470;-76
2023/08/28 01:28:06;;;;;;;;;1.75;1.00;;;;;-146.67;100.00;57155.34;5100179;28;10585;-76
2023/08/28 01:30:31;;;;;;;;;2.75;0.75;;;;;-146.67;100.00;57155.34;5084301;28;8785;-76
2023/08/28 01:32:57;;;;;;;;;0.00;0.00;;;;;-146.67;100.00;57155.34;5066538;28;8797;-75
2023/08/28 01:35:26;;;;;;;;;0.00;0.00;;;;;-146.67;100.00;57155.34;5083000;28;8813;-75
2023/08/28 01:38:00;;;;;;;;;1.00;1.00;;;;;-146.67;100.00;57155.34;5084490;28;8809;-76
2023/08/28 01:40:32;;;;;;;;;1.00;1.00;;;;;-146.67;100.00;57155.34;5065901;28;10593;-75
2023/08/28 01:43:01;;;;;;;;;0.50;0.50;;;;;-146.67;100.00;57155.34;5084300;28;10534;-75
2023/08/28 01:45:27;;;;;;;;;0.00;0.00;;;;;-146.67;100.00;57155.34;5084418;28;10319;-75
2023/08/28 01:47:53;;;;;;;;;1.00;1.00;;;;;-146.67;100.00;57155.34;5084276;28;10465;-75
2023/08/28 01:50:18;;;;;;;;;0.25;0.25;;;;;-146.67;100.00;57155.34;5083218;28;8863;-76
2023/08/28 01:52:43;;;;;;;;;0.50;0.50;;;;;-146.67;100.00;57155.34;5083964;28;8805;-75
2023/08/28 01:55:09;;;;;;;;;1.50;1.50;;;;;-146.67;100.00;57155.34;5094672;28;8836;-75
2023/08/28 01:57:34;;;;;;;;;1.75;1.00;;;;;-146.67;100.00;57155.34;5103379;28;8796;-75
2023/08/28 02:00:00;;;;;;;;;1.00;1.00;;;;;-146.67;100.00;57155.34;5102044;28;9940;-76
2023/08/28 02:02:25;;;;;;;;;0.75;0.75;;;;;-146.67;100.00;57155.34;5104310;28;8764;-75
2023/08/28 02:04:50;;;;;;;;;1.75;0.75;;;;;-146.67;100.00;57155.34;5102112;28;8796;-75
2023/08/28 02:07:16;;;;;;;;;2.25;1.00;;;;;-146.67;100.00;57155.34;5103001;28;8805;-75
2023/08/28 02:09:41;;;;;;;;;1.00;1.00;;;;;-146.67;100.00;57155.34;5103924;28;8823;-75
2023/08/28 02:12:06;;;;;;;;;0.25;0.25;;;;;-146.67;100.00;57155.34;5104300;28;8764;-75
2023/08/28 02:14:32;;;;;;;;;0.00;0.00;;;;;-146.67;100.00;57155.34;5104039;28;8784;-75
2023/08/28 02:16:57;;;;;;;;;1.75;1.00;;;;;-146.67;100.00;57155.34;5104128;28;8776;-75
2023/08/28 02:19:23;;;;;;;;;1.25;1.25;;;;;-146.67;100.00;57155.34;5084638;28;9944;-76
2023/08/28 02:21:48;;;;;;;;;1.00;1.00;;;;;-146.67;100.00;57155.34;5085893;28;8820;-75
2023/08/28 02:24:13;;;;;;;;;1.00;1.00;;;;;-146.67;100.00;57155.34;5103837;28;8792;-75
2023/08/28 02:26:39;;;;;;;;;0.75;0.25;;;;;-146.67;100.00;57155.34;5103976;28;8782;-75
2023/08/28 02:29:04;;;;;;;;;2.00;1.00;;;;;-146.67;100.00;57155.34;5103869;28;8773;-75
2023/08/28 02:31:29;;;;;;;;;1.00;1.00;;;;;-146.67;100.00;57155.34;5103979;28;8810;-75
2023/08/28 02:33:55;;;;;;;;;1.00;1.00;;;;;-146.67;100.00;57155.34;5103345;28;8882;-75
2023/08/28 02:36:20;;;;;;;;;1.00;1.00;;;;;-146.67;100.00;57155.34;5103760;28;8773;-75
2023/08/28 02:38:45;;;;;;;;;0.00;0.00;;;;;-146.67;100.00;57155.34;5085632;28;9888;-75
2023/08/28 02:41:11;;;;;;;;;0.75;0.75;;;;;-146.67;100.00;57155.34;5085114;28;8785;-76
2023/08/28 02:43:37;;;;;;;;;3.75;2.00;;;;;-146.67;100.00;57155.34;5103567;28;8764;-75
2023/08/28 02:46:03;;;;;;;;;0.00;0.00;;;;;-146.67;100.00;57155.34;5103747;28;8728;-75
2023/08/28 02:48:28;;;;;;;;;4.25;2.00;;;;;-146.67;100.00;57155.34;5100820;28;10752;-75
2023/08/28 02:50:55;;;;;;;;;0.50;0.00;;;;;-146.67;100.00;57155.34;5103107;28;8800;-76
2023/08/28 02:53:20;;;;;;;;;2.00;1.00;;;;;-146.67;100.00;57155.34;5097802;28;8897;-75
2023/08/28 02:56:09;;;;;;;;;0.25;0.25;;;;;-146.67;100.00;57155.34;5082449;28;10454;-75
2023/08/28 02:58:34;;;;;;;;;2.25;1.00;;;;;-146.67;100.00;57155.34;5083108;28;8795;-75
2023/08/28 03:01:00;;;;;;;;;1.75;0.00;;;;;-146.67;100.00;57155.34;5098471;28;10352;-75
2023/08/28 03:03:25;;;;;;;;;1.00;1.00;;;;;-146.67;100.00;57155.34;5064475;28;8813;-75
2023/08/28 03:05:50;;;;;;;;;1.25;0.75;;;;;-146.67;100.00;57155.34;5063389;28;8815;-75
2023/08/28 03:08:16;;;;;;;;;2.00;0.00;;;;;-146.67;100.00;57155.34;5062674;28;8811;-75
2023/08/28 03:10:41;;;;;;;;;1.50;1.50;;;;;-146.67;100.00;57155.34;5044497;28;8824;-75
2023/08/28 03:13:06;;;;;;;;;2.00;1.00;;;;;-146.67;100.00;57155.34;5062992;28;8815;-75
2023/08/28 03:15:32;;;;;;;;;1.00;1.00;;;;;-146.67;100.00;57155.34;5062668;28;8836;-75
2023/08/28 03:17:57;;;;;;;;;1.00;1.00;;;;;-146.67;100.00;57155.34;5062475;28;8815;-75
2023/08/28 03:20:22;;;;;;;;;0.75;0.75;;;;;-146.67;100.00;57155.34;5044165;28;8981;-75
2023/08/28 03:22:48;;;;;;;;;1.25;0.50;;;;;-146.67;100.00;57155.34;5044787;28;9502;-75
2023/08/28 03:25:13;;;;;;;;;1.00;1.00;;;;;-146.67;100.00;57155.34;5062355;28;8847;-75
2023/08/28 03:27:39;;;;;;;;;3.25;0.25;;;;;-146.67;100.00;57155.34;5061267;28;9932;-75
2023/08/28 03:30:06;;;;;;;;;1.00;0.00;;;;;-146.67;100.00;57155.34;5062945;28;8796;-75
2023/08/28 03:32:32;;;;;;;;;0.00;0.00;;;;;-146.67;100.00;57155.34;5060681;28;8815;-75
2023/08/28 03:34:57;;;;;;;;;1.00;1.00;;;;;-146.67;100.00;57155.34;5062371;28;10432;-75
2023/08/28 03:37:23;;;;;;;;;0.50;0.50;;;;;-146.67;100.00;57155.34;5062482;28;8792;-75
2023/08/28 03:39:48;;;;;;;;;1.00;1.00;;;;;-146.67;100.00;57155.34;5062106;28;8848;-75
2023/08/28 03:42:13;;;;;;;;;0.25;0.25;;;;;-146.67;100.00;57155.34;5062601;28;8827;-74
2023/08/28 03:44:39;;;;;;;;;1.00;1.00;;;;;-146.67;100.00;57155.34;5062162;28;8804;-75
2023/08/28 03:47:04;;;;;;;;;0.00;0.00;;;;;-146.67;100.00;57155.34;5062001;28;8815;-75
2023/08/28 03:49:30;;;;;;;;;1.00;0.50;;;;;-146.67;100.00;57155.34;5060453;28;8820;-76
2023/08/28 03:51:59;;;;;;;;;0.00;0.00;;;;;-146.67;100.00;57155.34;5062514;28;8820;-75
2023/08/28 03:54:24;;;;;;;;;0.50;0.50;;;;;-146.67;100.00;57155.34;5046543;28;8842;-75
2023/08/28 03:56:50;;;;;;;;;2.00;1.00;;;;;-146.67;100.00;57155.34;5082094;28;10637;-75
2023/08/28 03:59:15;;;;;;;;;2.75;1.00;;;;;-146.67;100.00;57155.34;5084889;28;8789;-75
2023/08/28 04:01:41;;;;;;;;;1.00;1.00;;;;;-146.67;100.00;57155.34;5085496;28;8785;-75
2023/08/28 04:04:06;;;;;;;;;0.50;0.50;;;;;-146.67;100.00;57155.34;5067991;28;8817;-75
2023/08/28 04:06:31;;;;;;;;;1.25;0.50;;;;;-146.67;100.00;57155.34;5085912;28;8843;-75
2023/08/28 04:08:57;;;;;;;;;1.25;1.25;;;;;-146.67;100.00;57155.34;5085837;28;8789;-75
2023/08/28 04:11:22;;;;;;;;;0.25;0.25;;;;;-146.67;100.00;57155.34;5067430;28;8804;-75
2023/08/28 04:13:47;;;;;;;;;0.50;0.25;;;;;-146.67;100.00;57155.34;5067032;28;8964;-76
2023/08/28 04:16:13;;;;;;;;;2.25;0.50;;;;;-146.67;100.00;57155.34;5085880;28;8840;-75
2023/08/28 04:18:39;;;;;;;;;0.00;0.00;;;;;-146.67;100.00;57155.34;5085744;28;8883;-75
2023/08/28 04:21:04;;;;;;;;;2.25;1.00;;;;;-146.67;100.00;57155.34;5085131;28;8790;-75
2023/08/28 04:23:29;;;;;;;;;1.75;1.00;;;;;-146.67;100.00;57155.34;5067596;28;9222;-75
2023/08/28 04:25:55;;;;;;;;;0.75;0.75;;;;;-146.67;100.00;57155.34;5084985;28;8952;-75
2023/08/28 04:28:21;;;;;;;;;1.25;0.00;;;;;-146.67;100.00;57155.34;5085217;28;8820;-75
2023/08/28 04:30:47;;;;;;;;;1.00;1.00;;;;;-146.67;100.00;57155.34;5085529;28;8836;-75
2023/08/28 04:33:12;;;;;;;;;3.50;2.00;;;;;-146.67;100.00;57155.34;5085565;28;10475;-75
2023/08/28 04:35:37;;;;;;;;;0.75;0.75;;;;;-146.67;100.00;57155.34;5084857;28;8859;-75
2023/08/28 04:38:03;;;;;;;;;2.50;2.00;;;;;-146.67;100.00;57155.34;5085647;28;8874;-74
2023/08/28 04:40:28;;;;;;;;;0.00;0.00;;;;;-146.67;100.00;57155.34;5067029;28;8804;-75
2023/08/28 04:42:54;;;;;;;;;0.25;0.25;;;;;-146.67;100.00;57155.34;5084890;28;8863;-76
2023/08/28 04:45:20;;;;;;;;;0.00;0.00;;;;;-146.67;100.00;57155.34;5085268;28;8832;-75
2023/08/28 04:47:45;;;;;;;;;0.00;0.00;;;;;-146.67;100.00;57155.34;5067095;28;8816;-76
2023/08/28 04:50:10;;;;;;;;;5.00;1.25;;;;;-146.67;100.00;57155.34;5066653;28;8789;-75
2023/08/28 04:52:36;;;;;;;;;2.00;1.00;;;;;-146.67;100.00;57155.34;5084848;28;8920;-75
2023/08/28 04:55:01;;;;;;;;;0.75;0.75;;;;;-146.67;100.00;57155.34;5080631;28;8869;-75
2023/08/28 04:57:27;;;;;;;;;1.00;1.00;;;;;-146.67;100.00;57155.34;5084955;28;8789;-75
2023/08/28 04:59:52;;;;;;;;;1.00;1.00;;;;;-146.67;100.00;57155.34;5083407;28;8809;-75
2023/08/28 05:02:18;;;;;;;;;1.00;1.00;;;;;-146.67;100.00;57155.34;5085219;28;8808;-75
2023/08/28 05:04:43;;;;;;;;;0.00;0.00;;;;;-146.67;100.00;57155.34;5084802;28;8882;-75
2023/08/28 05:07:11;;;;;;;;;0.25;0.25;;;;;-146.67;100.00;57155.34;5085085;28;8817;-75
2023/08/28 05:09:36;;;;;;;;;0.00;0.00;;;;;-146.67;100.00;57155.34;5099223;28;8894;-77
2023/08/28 05:12:02;;;;;;;;;0.75;0.00;;;;;-146.67;100.00;57155.34;5099947;28;10350;-80
2023/08/28 05:14:27;;;;;;;;;1.00;1.00;;;;;-146.67;100.00;57155.34;5066586;28;9901;-77
2023/08/28 05:16:53;;;;;;;;;0.00;0.00;;;;;-146.67;100.00;57155.34;5084560;28;8898;-78
2023/08/28 05:19:18;;;;;;;;;1.00;1.00;;;;;-146.67;100.00;57155.34;5084344;28;8785;-78
2023/08/28 05:21:43;;;;;;;;;0.00;0.00;;;;;-146.67;100.00;57155.34;5100246;28;8809;-77
2023/08/28 05:24:09;;;;;;;;;0.00;0.00;;;;;-146.67;100.00;57155.34;5084604;28;8923;-77
2023/08/28 05:26:34;;;;;;;;;0.50;0.50;;;;;-146.67;100.00;57155.34;5083881;28;8793;-77
2023/08/28 05:28:59;;;;;;;;;0.00;0.00;;;;;-146.67;100.00;57155.34;5084186;28;8800;-77
2023/08/28 05:31:30;;;;;;;;;0.00;0.00;;;;;-146.67;100.00;57155.34;5072288;28;8815;-78
2023/08/28 05:34:03;;;;;;;;;0.00;0.00;;;;;-146.67;100.00;57155.34;5062482;28;10026;-77
2023/08/28 05:36:28;;;;;;;;;1.50;1.50;;;;;-146.67;100.00;57155.34;5064047;28;10457;-77
2023/08/28 05:38:53;;;;;;;;;1.00;0.00;;;;;-146.67;100.00;57155.34;5063776;28;10405;-77
2023/08/28 05:41:19;;;;;;;;;3.00;1.00;;;;;-146.67;100.00;57155.34;5063647;28;8769;-78
2023/08/28 05:43:45;;;;;;;;;0.25;0.25;;;;;-146.67;100.00;57155.34;5045905;28;9985;-79
2023/08/28 05:46:10;;;;;;;;;0.75;0.75;;;;;-146.67;100.00;57155.34;5039438;28;8840;-79
2023/08/28 05:48:36;;;;;;;;;0.75;0.75;;;;;-146.67;100.00;57155.34;5045949;28;8812;-77
2023/08/28 05:51:01;;;;;;;;;2.25;1.50;;;;;-146.67;100.00;57155.34;5056940;28;8799;-78
2023/08/28 05:53:29;;;;;;;;;1.00;1.00;;;;;-146.67;100.00;57155.34;5042222;28;9896;-78
2023/08/28 05:55:54;;;;;;;;;0.00;0.00;;;;;-146.67;100.00;57155.34;5072647;28;8796;-77
2023/08/28 05:58:20;;;;;;;;;1.00;1.00;;;;;-146.67;100.00;57155.34;5080525;28;10275;-78
2023/08/28 06:00:45;;;;;;;;;1.00;1.00;;;;;-146.67;100.00;57155.34;5069438;28;9265;-76
2023/08/28 06:03:11;;;;;;;;;1.00;1.00;;;;;-146.67;100.00;57155.34;5062978;28;8793;-76
2023/08/28 06:05:36;;;;;;;;;1.00;1.00;;;;;-146.67;100.00;57155.34;5061384;28;8811;-76
2023/08/28 06:08:02;;;;;;;;;1.00;1.00;;;;;-146.67;100.00;57155.34;5045397;28;8810;-75
2023/08/28 06:10:31;;;;;;;;;1.00;1.00;;;;;-146.67;100.00;57155.34;5074346;28;8902;-76
2023/08/28 06:12:57;;;;;;;;;1.25;1.25;;;;;-146.67;100.00;57155.34;5044116;28;10052;-76
2023/08/28 06:15:23;;;;;;;;;1.00;1.00;;;;;-146.67;100.00;57155.34;5062704;28;10547;-75
2023/08/28 06:17:54;;;;;;;;;2.00;1.00;;;;;-146.67;100.00;57155.34;5063885;28;8880;-76
2023/08/28 06:20:19;;;;;;;;;3.50;1.00;;;;;-146.67;100.00;57155.34;5065356;28;10348;-75
2023/08/28 06:22:45;;;;;;;;;1.25;1.25;;;;;-146.67;100.00;57155.34;5045072;28;10576;-76
2023/08/28 06:25:11;;;;;;;;;1.00;1.00;;;;;-146.67;100.00;57155.34;5062074;28;8783;-76
2023/08/28 06:27:37;;;;;;;;;2.75;1.00;;;;;-146.67;100.00;57155.34;5061598;28;8791;-75
2023/08/28 06:30:06;;;;;;;;;1.50;1.50;;;;;-146.67;100.00;57155.34;5043884;28;8814;-76
2023/08/28 06:32:32;;;;;;;;;2.25;2.25;;;;;-146.67;100.00;57155.34;5063166;28;10612;-76
2023/08/28 06:34:59;;;;;;;;;1.25;1.25;;;;;-146.67;100.00;57155.34;5062579;28;10578;-76
2023/08/28 06:37:24;;;;;;;;;1.75;1.75;;;;;-146.67;100.00;57155.34;5045067;28;8847;-76
2023/08/28 06:39:51;;;;;;;;;5.00;1.25;;;;;-146.67;100.00;57155.34;5062519;28;10568;-76
2023/08/28 06:42:17;;;;;;;;;1.00;1.00;;;;;-146.67;100.00;57155.34;5045242;28;10264;-76
2023/08/28 06:44:43;;;;;;;;;1.75;1.75;;;;;-146.67;100.00;57155.34;5078728;28;10354;-76
2023/08/28 06:47:08;;;;;;;;;3.00;3.00;;;;;-146.67;100.00;57155.34;5083022;28;10112;-76
2023/08/28 06:49:34;;;;;;;;;1.00;1.00;;;;;-146.67;100.00;57155.34;5082446;28;8773;-76
2023/08/28 06:51:59;;;;;;;;;1.00;1.00;;;;;-146.67;100.00;57155.34;5082071;28;10119;-76
2023/08/28 06:54:25;;;;;;;;;2.00;2.00;;;;;-146.67;100.00;57155.34;5074290;28;8829;-76
2023/08/28 06:56:51;;;;;;;;;2.00;1.00;;;;;-146.67;100.00;57155.34;5083197;28;8824;-76
2023/08/28 06:59:16;;;;;;;;;1.75;1.00;;;;;-146.67;100.00;57155.34;5083097;28;8757;-76
2023/08/28 07:01:43;;;;;;;;;2.75;1.50;;;;;-146.67;100.00;57155.34;5083204;28;11330;-76
2023/08/28 07:04:08;;;;;;;;;3.00;3.00;;;;;-146.67;100.00;57155.34;5082847;28;8793;-77
2023/08/28 07:06:34;;;;;;;;;4.00;2.25;;;;;-146.67;100.00;57155.34;5081635;28;10431;-76
2023/08/28 07:08:59;;;;;;;;;3.75;2.50;;;;;-146.67;100.00;57155.34;5082683;28;8820;-76
2023/08/28 07:11:25;;;;;;;;;3.00;3.00;;;;;-146.67;100.00;57155.34;5082641;28;8870;-76
2023/08/28 07:13:50;;;;;;;;;3.00;2.00;;;;;-146.67;100.00;57155.34;5083012;28;8786;-76
2023/08/28 07:16:15;;;;;;;;;1.25;1.25;;;;;-146.67;100.00;57155.34;5082672;28;8789;-76
2023/08/28 07:18:41;;;;;;;;;2.25;2.25;;;;;-146.67;100.00;57155.34;5082839;28;8802;-76
2023/08/28 07:21:06;;;;;;;;;4.00;3.00;;;;;-146.67;100.00;57155.34;5082353;28;8805;-76
2023/08/28 07:23:33;;;;;;;;;6.00;5.00;;;;;-146.67;100.00;57155.34;5082333;28;8817;-76
2023/08/28 07:25:59;;;;;;;;;3.75;2.75;;;;;-146.67;100.00;57155.34;5064445;28;8876;-76
2023/08/28 07:28:24;;;;;;;;;5.00;3.50;;;;;-146.67;100.00;57155.34;5082519;28;10007;-76
2023/08/28 07:30:50;;;;;;;;;1.25;1.25;;;;;-146.67;100.00;57155.34;5082649;28;10846;-76
2023/08/28 07:33:15;;;;;;;;;2.00;2.00;;;;;-146.67;100.00;57155.34;5082116;28;8786;-76
2023/08/28 07:35:45;;;;;;;;;2.50;2.00;;;;;-146.67;100.00;57155.34;5080999;28;8920;-76
2023/08/28 07:38:11;;;;;;;;;4.00;3.75;;;;;-146.67;100.00;57155.34;5082477;28;8816;-76
2023/08/28 07:40:36;;;;;;;;;2.50;2.50;;;;;-146.67;100.00;57155.34;5063880;28;10503;-76
2023/08/28 07:43:02;;;;;;;;;2.50;2.00;;;;;-146.67;100.00;57155.34;5064540;28;8805;-76
2023/08/28 07:45:28;;;;;;;;;4.00;3.00;;;;;-146.67;100.00;57155.34;5064162;28;8780;-76
2023/08/28 07:47:55;;;;;;;;;4.75;3.50;;;;;-146.67;100.00;57155.34;5082591;28;11395;-76
2023/08/28 07:50:21;;;;;;;;;3.00;2.50;;;;;-146.67;100.00;57155.34;5063612;28;10382;-76
2023/08/28 07:52:46;;;;;;;;;1.75;1.00;;;;;-146.67;100.00;57155.34;5063786;28;9963;-76
2023/08/28 07:55:12;;;;;;;;;3.00;3.00;;;;;-146.67;100.00;57155.34;5063690;28;8849;-76
2023/08/28 07:57:37;;;;;;;;;2.00;2.00;;;;;-146.67;100.00;57155.34;5082079;28;8785;-76
2023/08/28 08:00:07;;;;;;;;;5.25;3.25;;;;;-146.67;100.00;57155.34;5082561;28;8792;-76
2023/08/28 08:02:32;;;;;;;;;2.50;2.00;;;;;-146.67;100.00;57155.34;5082243;28;8740;-76
2023/08/28 08:04:58;;;;;;;;;4.00;2.50;;;;;-146.67;100.00;57155.34;5064094;28;10061;-76
2023/08/28 08:07:24;;;;;;;;;4.25;2.50;;;;;-146.67;100.00;57155.34;5063769;28;8805;-76
2023/08/28 08:09:49;;;;;;;;;2.00;2.00;;;;;-146.67;100.00;57155.34;5081858;28;8805;-76
2023/08/28 08:12:14;;;;;;;;;2.25;2.25;;;;;-146.67;100.00;57155.34;5082458;28;8871;-76
2023/08/28 08:14:40;;;;;;;;;2.25;2.25;;;;;-146.67;100.00;57155.34;5063950;28;9531;-76
2023/08/28 08:17:05;;;;;;;;;1.00;1.00;;;;;-146.67;100.00;57155.34;5082248;28;8813;-76
2023/08/28 08:19:30;;;;;;;;;3.50;3.50;;;;;-146.67;100.00;57155.34;5063290;28;10085;-76
2023/08/28 08:21:56;;;;;;;;;3.75;2.00;;;;;-146.67;100.00;57155.34;5081871;28;8805;-76
2023/08/28 08:24:22;;;;;;;;;1.25;1.25;;;;;-146.67;100.00;57155.34;5063793;28;8801;-76
2023/08/28 08:26:47;;;;;;;;;2.25;1.00;;;;;-146.67;100.00;57155.34;5081672;28;11469;-76
2023/08/28 08:29:13;;;;;;;;;3.00;2.50;;;;;-146.67;100.00;57155.34;5082270;28;8971;-76
2023/08/28 08:31:38;;;;;;;;;2.50;2.00;;;;;-146.67;100.00;57155.34;5097287;28;8805;-76
2023/08/28 08:34:04;;;;;;;;;2.50;2.00;;;;;-146.67;100.00;57155.34;5063801;28;8933;-76
2023/08/28 08:36:29;;;;;;;;;3.25;2.00;;;;;-146.67;100.00;57155.34;5080023;28;8785;-76
2023/08/28 08:38:54;;;;;;;;;2.75;2.00;;;;;-146.67;100.00;57155.34;5082009;28;8789;-77
2023/08/28 08:41:20;;;;;;;;;3.00;3.00;;;;;-146.67;100.00;57155.34;5063310;28;8821;-77
2023/08/28 08:43:45;;;;;;;;;3.75;2.00;;;;;-146.67;100.00;57155.34;5081834;28;8905;-76
2023/08/28 08:46:11;;;;;;;;;2.50;2.50;;;;;-146.67;100.00;57155.34;5065787;28;8809;-76
2023/08/28 08:48:37;;;;;;;;;3.00;2.00;;;;;-146.67;100.00;57155.34;5067208;28;9873;-77
2023/08/28 08:51:07;;;;;;;;;2.75;2.75;;;;;-146.67;100.00;57155.34;5084377;28;8858;-77
2023/08/28 08:53:46;;;;;;;;;4.00;3.00;;;;;-146.67;100.00;57155.34;5100567;28;8809;-76
2023/08/28 08:56:17;;;;;;;;;4.25;3.50;;;;;-146.67;100.00;57155.34;5065212;28;10029;-76
2023/08/28 08:58:43;;;;;;;;;4.25;4.25;;;;;-146.67;100.00;57155.34;5046913;28;10296;-76
2023/08/28 09:01:09;;;;;;;;;2.00;2.00;;;;;-146.67;100.00;57155.34;5064842;28;10115;-76
2023/08/28 09:03:35;;;;;;;;;1.25;1.25;;;;;-146.67;100.00;57155.34;5064939;28;8814;-77
2023/08/28 09:06:01;;;;;;;;;1.75;1.75;;;;;-146.67;100.00;57155.34;5064671;28;9678;-77
2023/08/28 09:08:28;;;;;;;;;4.00;1.50;;;;;-146.67;100.00;57155.34;5064946;28;9884;-77
2023/08/28 09:10:57;;;;;;;;;3.25;2.00;;;;;-146.67;100.00;57155.34;5046583;28;9738;-76
2023/08/28 09:13:23;;;;;;;;;3.00;2.00;;;;;-146.67;100.00;57155.34;5047083;28;9830;-76
2023/08/28 09:15:48;;;;;;;;;2.75;2.75;;;;;-146.67;100.00;57155.34;5064330;28;9760;-76
2023/08/28 09:18:14;;;;;;;;;3.25;2.00;;;;;-146.67;100.00;57155.34;5064893;28;8784;-76
2023/08/28 09:20:39;;;;;;;;;2.00;2.00;;;;;-146.67;100.00;57155.34;5079133;28;8925;-77
2023/08/28 09:23:05;;;;;;;;;1.50;1.50;;;;;-146.67;100.00;57155.34;5064599;28;8803;-77
2023/08/28 09:25:31;;;;;;;;;2.50;2.50;;;;;-146.67;100.00;57155.34;5046218;28;8815;-77
2023/08/28 09:27:56;;;;;;;;;1.00;1.00;;;;;-146.67;100.00;57155.34;5046686;28;10491;-77
2023/08/28 09:30:36;;;;;;;;;3.50;2.75;;;;;-146.67;100.00;57155.34;5064675;28;9818;-77
2023/08/28 09:33:06;;;;;;;;;2.25;2.25;;;;;-146.67;100.00;57155.34;5046162;28;8811;-77
2023/08/28 09:35:44;;;;;;;;;3.00;3.00;;;;;-146.67;100.00;57155.34;5064274;28;9734;-77
2023/08/28 09:38:10;;;;;;;;;2.00;2.00;;;;;-146.67;100.00;57155.34;5064633;28;10043;-77
2023/08/28 09:40:40;;;;;;;;;2.00;2.00;;;;;-146.67;100.00;57155.34;5063987;28;9819;-76
2023/08/28 09:43:13;;;;;;;;;1.00;1.00;;;;;-146.67;100.00;57155.34;5064461;28;9385;-77
2023/08/28 09:45:40;;;;;;;;;1.50;1.50;;;;;-146.67;100.00;57155.34;5063936;28;9763;-76
2023/08/28 09:48:07;;;;;;;;;4.00;3.25;;;;;-146.67;100.00;57155.34;5046011;28;11028;-77
2023/08/28 09:50:34;;;;;;;;;3.00;3.00;;;;;-146.67;100.00;57155.34;5063773;28;9905;-76
2023/08/28 09:53:07;;;;;;;;;14.00;14.00;;;;;-146.67;100.00;57155.34;5045646;28;10033;-77
2023/08/28 09:55:44;;;;;;;;;5.25;4.00;;;;;-146.67;100.00;57155.34;5058893;28;11503;-76
2023/08/28 09:58:10;;;;;;;;;3.00;3.00;;;;;-146.67;100.00;57155.34;5084096;28;10792;-77
2023/08/28 10:00:39;;;;;;;;;4.75;4.00;;;;;-146.67;100.00;57155.34;5084304;28;9498;-76
2023/08/28 10:03:06;;;;;;;;;2.25;2.25;;;;;-146.67;100.00;57155.34;5083759;28;9897;-77
2023/08/28 10:05:35;;;;;;;;;4.25;4.00;;;;;-146.67;100.00;57155.34;5065576;28;9952;-76
2023/08/28 10:08:04;;;;;;;;;7.50;4.50;;;;;-146.67;100.00;57155.34;5083889;28;10132;-76
2023/08/28 10:10:30;;;;;;;;;3.00;3.00;;;;;-146.67;100.00;57155.34;5083792;28;9940;-77
2023/08/28 10:12:55;;;;;;;;;4.00;3.00;;;;;-146.67;100.00;57155.34;5083778;28;9850;-76
2023/08/28 10:15:22;;;;;;;;;5.00;3.75;;;;;-146.67;100.00;57155.34;5065663;28;9962;-76
2023/08/28 10:17:49;;;;;;;;;4.00;2.25;;;;;-146.67;100.00;57155.34;5065320;28;9996;-76
2023/08/28 10:20:18;;;;;;;;;4.25;3.00;;;;;-146.67;100.00;57155.34;5083254;28;9643;-76
2023/08/28 10:22:45;;;;;;;;;2.00;2.00;;;;;-146.67;100.00;57155.34;5065566;28;9718;-76
2023/08/28 10:25:13;;;;;;;;;5.25;2.00;;;;;-146.67;100.00;57155.34;5083078;28;9695;-77
2023/08/28 10:27:40;;;;;;;;;2.75;2.00;;;;;-146.67;100.00;57155.34;5065764;28;10376;-76
2023/08/28 10:30:08;;;;;;;;;4.50;3.75;;;;;-146.67;100.00;57155.34;5083625;28;9685;-76
2023/08/28 10:32:35;;;;;;;;;2.00;2.00;;;;;-146.67;100.00;57155.34;5081804;28;9842;-77
2023/08/28 10:35:02;;;;;;;;;3.00;2.00;;;;;-146.67;100.00;57155.34;5083185;28;10610;-77
2023/08/28 10:37:30;;;;;;;;;5.25;3.25;;;;;-146.67;100.00;57155.34;5083717;28;9660;-77
2023/08/28 10:40:01;;;;;;;;;4.00;4.00;;;;;-146.67;100.00;57155.34;5083019;28;9799;-77
2023/08/28 10:42:28;;;;;;;;;2.00;2.00;;;;;-146.67;100.00;57155.34;5065333;28;9598;-77
2023/08/28 10:44:54;;;;;;;;;2.25;2.25;;;;;-146.67;100.00;57155.34;5083024;28;9539;-77
2023/08/28 10:47:20;;;;;;;;;2.00;2.00;;;;;-146.67;100.00;57155.34;5083121;28;9897;-77
2023/08/28 10:49:46;;;;;;;;;4.33;2.67;;;;;-146.67;100.00;57155.34;5082942;28;8781;-77
2023/08/28 10:52:11;;;;;;;;;1.00;1.00;;;;;-146.67;100.00;57155.34;5065279;28;8781;-77
2023/08/28 10:54:42;;;;;;;;;2.00;2.00;;;;;-146.67;100.00;57155.34;5076233;28;8849;-77
2023/08/28 10:57:21;;;;;;;;;3.00;2.00;;;;;-146.67;100.00;57155.34;5044814;28;10045;-77
2023/08/28 10:59:48;;;;;;;;;1.00;1.00;;;;;-146.67;100.00;57155.34;5044768;28;9613;-77
2023/08/28 11:02:13;;;;;;;;;0.75;0.75;;;;;-146.67;100.00;57155.34;5045151;28;9568;-77
2023/08/28 11:04:40;;;;;;;;;5.25;2.00;;;;;-146.67;100.00;57155.34;5062936;28;9506;-77
2023/08/28 11:07:27;;;;;;;;;2.00;2.00;;;;;-146.67;100.00;57155.34;5062711;28;8803;-77
2023/08/28 11:10:20;;;;;;;;;2.67;2.67;;;;;-146.67;100.00;57155.34;5062256;28;10456;-77
2023/08/28 11:12:53;;;;;;;;;1.67;1.67;;;;;-146.67;100.00;57155.34;5063090;28;9505;-77